Edinburg, TX

11:48 PM CDT on October 16, 2017 (GMT -0500)
Edinburg

Weather History for KEBG - August, 2014

Change the Weather History Date:

Saturday, August 2, 2014

  Actual Average (KMFE) Record (KMFE)
Temperature  
Mean Temperature 88 °F -  
Max Temperature 97 °F 97 °F 104 °F (2009)
Min Temperature 79 °F 75 °F 72 °F (1984)
Cooling Degree Days 22    
Growing Degree Days 38 (Base 50)    
Moisture  
Dew Point 72 °F    
Average Humidity 63    
Maximum Humidity 84    
Minimum Humidity 33    
Precipitation  
Precipitation 0.00 in - - ()
Sea Level Pressure  
Sea Level Pressure 29.96 in    
Wind  
Wind Speed 6 mph (East)    
Max Wind Speed 16 mph    
Max Gust Speed 21 mph    
Visibility 10 miles    
Events Thunderstorm    
Averages and records for this station are not official NWS values.
T = Trace of Precipitation, MM = Missing Value Source: NWS Daily Summary

Daily Weather History Graph

Daily Weather History Graph

Search for Another Location

Airport or City:

Trip Planner

Search our weather history database for the weather conditions in past years. The results will help you decide how hot, cold, wet, or windy it might be!

Date:

Astronomy

Aug. 02, 2014 Rise Set
Actual Time 6:58 AM CDT 8:18 PM CDT
Civil Twilight 6:33 AM CDT 8:43 PM CDT
Nautical Twilight 6:03 AM CDT 9:13 PM CDT
Astronomical Twilight 5:33 AM CDT 9:43 PM CDT
Moon 12:41 PM CDT (8/2) No Moon Set
Length of Visible Light 14h 10m
Length of Day
13h 20m
Waxing Crescent, 37% of the Moon is Illuminated
Aug 2
Waxing Crescent
Aug 3
First Quarter
Aug 10
Full
Aug 17
Last Quarter
Aug 25
New

Hourly Weather History & Observations

Time (CDT) Temp. Heat Index Dew Point Humidity Pressure Visibility Wind Dir Wind Speed Gust Speed Precip Events Conditions
12:35 AM 83.7 °F 90.4 °F 73.9 °F 72% 29.96 in 10.0 mi SSE 3.5 mph - N/A   Clear
1:15 AM 83.5 °F 91.2 °F 75.2 °F 76% 29.97 in 10.0 mi South 3.5 mph - N/A   Scattered Clouds
1:35 AM 83.3 °F 90.8 °F 75.2 °F 76% 29.96 in 10.0 mi South 3.5 mph - N/A   Scattered Clouds
1:55 AM 83.3 °F 90.8 °F 75.2 °F 76% 29.96 in 10.0 mi Calm Calm - N/A   Mostly Cloudy
2:15 AM 82.4 °F 89.5 °F 75.2 °F 79% 29.95 in 10.0 mi South 4.6 mph - N/A   Scattered Clouds
2:35 AM 82.0 °F 88.9 °F 75.2 °F 80% 29.95 in 10.0 mi Calm Calm - N/A   Clear
2:55 AM 82.4 °F 89.2 °F 75.0 °F 78% 29.95 in 10.0 mi Calm Calm - N/A   Clear
3:35 AM 82.6 °F 89.7 °F 75.2 °F 78% 29.95 in 10.0 mi Calm Calm - N/A   Mostly Cloudy
4:15 AM 82.4 °F 89.5 °F 75.2 °F 79% 29.95 in 10.0 mi Calm Calm - N/A   Mostly Cloudy
4:35 AM 81.7 °F 88.0 °F 74.8 °F 80% 29.94 in 10.0 mi East 4.6 mph - N/A   Scattered Clouds
4:55 AM 81.5 °F 87.6 °F 74.7 °F 80% 29.94 in 10.0 mi Calm Calm - N/A   Scattered Clouds
5:15 AM 81.1 °F 87.2 °F 75.0 °F 82% 29.94 in 10.0 mi Calm Calm - N/A   Scattered Clouds
5:35 AM 80.2 °F 85.2 °F 74.5 °F 83% 29.95 in 10.0 mi East 3.5 mph - N/A   Clear
5:55 AM 79.9 °F - 74.5 °F 83% 29.95 in 10.0 mi East 3.5 mph - N/A   Clear
6:15 AM 79.9 °F - 74.3 °F 83% 29.96 in 10.0 mi East 3.5 mph - N/A   Scattered Clouds
6:35 AM 80.4 °F 85.6 °F 74.7 °F 83% 29.96 in 10.0 mi East 5.8 mph - N/A   Mostly Cloudy
6:55 AM 80.2 °F 85.4 °F 74.8 °F 84% 29.96 in 10.0 mi East 4.6 mph - N/A   Scattered Clouds
7:15 AM 80.8 °F 86.5 °F 75.2 °F 83% 29.97 in 10.0 mi East 4.6 mph - N/A   Scattered Clouds
7:35 AM 81.1 °F 87.4 °F 75.4 °F 83% 29.98 in 10.0 mi ENE 3.5 mph - N/A   Mostly Cloudy
7:55 AM 81.7 °F 88.5 °F 75.6 °F 82% 29.99 in 10.0 mi ENE 3.5 mph - N/A   Mostly Cloudy
8:15 AM 82.2 °F 89.3 °F 75.6 °F 80% 29.99 in 10.0 mi East 3.5 mph - N/A   Scattered Clouds
8:35 AM 83.1 °F 91.3 °F 75.9 °F 79% 29.99 in 10.0 mi East 4.6 mph - N/A   Clear
8:55 AM 84.0 °F 92.9 °F 76.1 °F 77% 30.00 in 10.0 mi East 4.6 mph - N/A   Clear
9:15 AM 85.3 °F 94.6 °F 75.7 °F 73% 30.00 in 7.0 mi SSE 3.5 mph - N/A   Clear
9:35 AM 86.9 °F 95.9 °F 74.7 °F 67% 30.00 in 7.0 mi SSE 4.6 mph - N/A   Clear
9:55 AM 88.2 °F 96.0 °F 73.4 °F 61% 30.00 in 10.0 mi SSE 6.9 mph - N/A   Clear
10:15 AM 88.7 °F 95.2 °F 71.6 °F 57% 29.99 in 10.0 mi SSE 6.9 mph - N/A   Scattered Clouds
10:35 AM 89.2 °F 96.4 °F 72.1 °F 57% 30.00 in 10.0 mi SSE 9.2 mph - N/A   Scattered Clouds
10:55 AM 89.6 °F 96.6 °F 71.8 °F 56% 30.01 in 10.0 mi SSE 4.6 mph - N/A Thunderstorm Clear
11:15 AM 90.0 °F 96.4 °F 71.2 °F 54% 30.01 in 10.0 mi South 3.5 mph - N/A   Scattered Clouds
11:35 AM 89.6 °F 95.7 °F 71.1 °F 54% 30.02 in 10.0 mi SSE 5.8 mph - N/A   Mostly Cloudy
11:55 AM 91.0 °F 97.1 °F 70.7 °F 51% 30.01 in 10.0 mi Calm Calm - N/A   Mostly Cloudy
12:15 PM 88.0 °F 92.9 °F 70.2 °F 55% 30.02 in 10.0 mi NNE 15.0 mph 19.6 mph N/A   Overcast
12:35 PM 89.8 °F 95.1 °F 69.8 °F 52% 30.00 in 10.0 mi NE 10.4 mph - N/A   Scattered Clouds
12:55 PM 91.4 °F 96.8 °F 69.8 °F 49% 29.99 in 10.0 mi NE 8.1 mph - N/A   Clear
1:15 PM 91.8 °F 97.0 °F 69.8 °F 48% 29.99 in 10.0 mi NE 5.8 mph - N/A   Clear
1:35 PM 93.9 °F 98.6 °F 68.4 °F 43% 29.97 in 10.0 mi North 4.6 mph - N/A   Clear
1:55 PM 93.9 °F 98.0 °F 67.6 °F 42% 29.97 in 10.0 mi NE 9.2 mph - N/A   Clear
2:15 PM 96.1 °F 99.9 °F 66.9 °F 38% 29.96 in 10.0 mi ENE 6.9 mph - N/A   Clear
2:35 PM 96.6 °F 100.3 °F 66.4 °F 37% 29.95 in 10.0 mi ENE 10.4 mph - N/A   Clear
2:55 PM 96.8 °F 100.7 °F 66.2 °F 37% 29.94 in 10.0 mi NNE 16.1 mph 19.6 mph N/A   Scattered Clouds
3:15 PM 94.6 °F 98.3 °F 66.9 °F 40% 29.94 in 10.0 mi North 12.7 mph - N/A   Clear
3:35 PM 95.7 °F 98.2 °F 65.1 °F 36% 29.94 in 10.0 mi North 16.1 mph 20.7 mph N/A   Clear
3:55 PM 92.8 °F 95.6 °F 66.2 °F 41% 29.93 in 10.0 mi NNE 15.0 mph - N/A   Clear
4:15 PM 91.4 °F 94.5 °F 66.7 °F 44% 29.92 in 10.0 mi NNE 16.1 mph - N/A   Clear
4:35 PM 91.0 °F 94.7 °F 67.5 °F 46% 29.92 in 10.0 mi NNE 16.1 mph 20.7 mph N/A   Light Drizzle
4:55 PM 90.3 °F 94.7 °F 68.9 °F 49% 29.92 in 10.0 mi NNE 13.8 mph - N/A   Clear
5:15 PM 91.0 °F 96.1 °F 69.4 °F 49% 29.92 in 10.0 mi NE 12.7 mph - N/A   Clear
5:35 PM 93.2 °F 99.4 °F 70.0 °F 47% 29.91 in 10.0 mi NE 9.2 mph - N/A   Clear
5:55 PM 94.1 °F 98.9 °F 68.4 °F 43% 29.90 in 10.0 mi NE 13.8 mph 18.4 mph N/A   Clear
6:15 PM 95.2 °F 99.3 °F 67.3 °F 40% 29.90 in 10.0 mi NNE 11.5 mph - N/A   Clear
6:35 PM 96.1 °F 97.3 °F 62.8 °F 33% 29.91 in 10.0 mi NNE 8.1 mph - N/A   Clear
6:55 PM 93.9 °F 102.7 °F 72.7 °F 50% 29.92 in 10.0 mi East 16.1 mph 20.7 mph N/A   Mostly Cloudy
7:15 PM 90.9 °F 99.4 °F 73.2 °F 56% 29.93 in 10.0 mi East 13.8 mph 20.7 mph N/A   Scattered Clouds
7:35 PM 89.8 °F 98.1 °F 73.4 °F 58% 29.94 in 10.0 mi East 16.1 mph 19.6 mph N/A   Scattered Clouds
7:55 PM 88.9 °F 97.1 °F 73.6 °F 60% 29.95 in 10.0 mi East 11.5 mph - N/A   Scattered Clouds
8:15 PM 88.0 °F 96.0 °F 73.4 °F 62% 29.96 in 10.0 mi East 11.5 mph - N/A   Clear
8:35 PM 86.9 °F 95.0 °F 73.8 °F 65% 29.96 in 10.0 mi East 13.8 mph - N/A   Clear
8:55 PM 86.2 °F 94.2 °F 73.9 °F 67% 29.97 in 10.0 mi East 10.4 mph - N/A   Scattered Clouds
9:15 PM 85.5 °F 93.0 °F 73.9 °F 68% 29.97 in 10.0 mi East 9.2 mph - N/A   Scattered Clouds
9:35 PM 85.1 °F 92.9 °F 74.3 °F 70% 29.98 in 10.0 mi East 9.2 mph - N/A   Clear
9:55 PM 84.4 °F 92.0 °F 74.3 °F 72% 29.99 in 10.0 mi East 8.1 mph - N/A   Clear
10:15 PM 84.2 °F 91.6 °F 74.3 °F 72% 29.99 in 10.0 mi ENE 8.1 mph - N/A   Clear
10:35 PM 83.5 °F 90.6 °F 74.3 °F 74% 30.00 in 10.0 mi East 4.6 mph - N/A   Clear
10:55 PM 83.3 °F 90.5 °F 74.5 °F 75% 30.00 in 10.0 mi East 4.6 mph - N/A   Clear
11:15 PM 82.8 °F 89.5 °F 74.5 °F 76% 30.00 in 10.0 mi East 4.6 mph - N/A   Clear
11:35 PM 82.4 °F 89.0 °F 74.7 °F 77% 29.99 in 10.0 mi East 5.8 mph - N/A   Clear
11:55 PM 82.0 °F 88.4 °F 74.7 °F 78% 30.00 in 10.0 mi East 4.6 mph - N/A   Clear